createdAt,value
2023-05-24T00:00:55.909Z,2.72
2023-05-24T00:03:25.836Z,2.65
2023-05-24T00:05:54.101Z,3.10
2023-05-24T00:08:22.434Z,3.17
2023-05-24T00:10:50.761Z,2.42
2023-05-24T00:13:19.260Z,2.70
2023-05-24T00:15:47.500Z,2.85
2023-05-24T00:18:17.834Z,2.28
2023-05-24T00:20:48.229Z,3.22
2023-05-24T00:23:16.873Z,2.78
2023-05-24T00:25:45.266Z,3.17
2023-05-24T00:28:13.522Z,3.92
2023-05-24T00:30:42.023Z,4.25
2023-05-24T00:33:10.563Z,3.05
2023-05-24T00:35:38.969Z,2.55
2023-05-24T00:38:08.723Z,2.40
2023-05-24T00:40:37.049Z,2.63
2023-05-24T00:43:06.931Z,3.00
2023-05-24T00:45:35.479Z,2.45
2023-05-24T00:48:04.916Z,3.17
2023-05-24T00:50:33.274Z,2.80
2023-05-24T00:53:03.662Z,2.90
2023-05-24T00:55:35.502Z,2.88
2023-05-24T00:58:04.267Z,3.05
2023-05-24T01:00:34.027Z,2.65
2023-05-24T01:03:03.667Z,2.40
2023-05-24T01:05:31.974Z,2.42
2023-05-24T01:08:10.346Z,2.97
2023-05-24T01:10:45.066Z,3.13
2023-05-24T01:13:25.428Z,3.05
2023-05-24T01:16:01.917Z,2.70
2023-05-24T01:18:34.529Z,3.42
2023-05-24T01:21:18.268Z,3.15
2023-05-24T01:23:55.916Z,3.97
2023-05-24T01:26:39.208Z,2.92
2023-05-24T01:29:11.254Z,3.10
2023-05-24T01:31:40.284Z,3.53
2023-05-24T01:34:08.849Z,2.80
2023-05-24T01:36:37.142Z,2.60
2023-05-24T01:39:06.346Z,3.15
2023-05-24T01:41:41.367Z,3.67
2023-05-24T01:44:18.423Z,3.10
2023-05-24T01:46:51.313Z,2.60
2023-05-24T01:51:56.480Z,3.15
2023-05-24T01:54:27.339Z,3.13
2023-05-24T01:56:58.731Z,2.50
2023-05-24T01:59:31.314Z,3.08
2023-05-24T02:01:59.680Z,2.95
2023-05-24T02:04:28.224Z,3.15
2023-05-24T02:06:56.489Z,2.95
2023-05-24T02:09:25.265Z,2.75
2023-05-24T02:11:53.489Z,3.10
2023-05-24T02:14:21.933Z,3.03
2023-05-24T02:16:52.794Z,3.25
2023-05-24T02:19:21.672Z,3.20
2023-05-24T02:21:50.151Z,3.72
2023-05-24T02:24:18.767Z,3.25
2023-05-24T02:26:47.231Z,3.13
2023-05-24T02:29:15.747Z,3.05
2023-05-24T02:31:44.138Z,2.80
2023-05-24T02:34:13.802Z,2.55
2023-05-24T02:36:42.737Z,3.20
2023-05-24T02:39:11.141Z,3.13
2023-05-24T02:41:39.430Z,3.10
2023-05-24T02:44:07.916Z,2.92
2023-05-24T02:46:36.421Z,2.75
2023-05-24T02:49:05.241Z,2.83
2023-05-24T02:51:35.001Z,3.03
2023-05-24T02:54:03.291Z,3.13
2023-05-24T02:56:31.684Z,3.40
2023-05-24T02:59:00.528Z,3.33
2023-05-24T03:01:31.096Z,2.95
2023-05-24T03:04:01.090Z,2.95
2023-05-24T03:06:29.889Z,2.63
2023-05-24T03:08:59.728Z,2.97
2023-05-24T03:11:28.239Z,3.83
2023-05-24T03:14:00.182Z,3.42
2023-05-24T03:16:28.866Z,3.65
2023-05-24T03:18:57.137Z,3.85
2023-05-24T03:21:25.701Z,2.63
2023-05-24T03:23:54.054Z,2.50
2023-05-24T03:26:24.034Z,2.85
2023-05-24T03:28:54.459Z,2.30
2023-05-24T03:31:28.830Z,2.83
2023-05-24T03:33:57.406Z,2.67
2023-05-24T03:36:29.249Z,3.15
2023-05-24T03:38:58.576Z,2.20
2023-05-24T03:41:29.253Z,2.75
2023-05-24T03:44:01.090Z,2.88
2023-05-24T03:46:31.350Z,2.53
2023-05-24T03:48:59.698Z,2.70
2023-05-24T03:51:29.877Z,2.35
2023-05-24T03:53:58.312Z,2.53
2023-05-24T03:56:30.512Z,2.92
2023-05-24T03:59:00.892Z,2.22
2023-05-24T04:01:34.287Z,2.35
2023-05-24T04:04:03.735Z,3.15
2023-05-24T04:06:32.360Z,2.72
2023-05-24T04:09:03.020Z,2.70
2023-05-24T04:11:33.472Z,2.75
2023-05-24T04:14:01.707Z,2.63
2023-05-24T04:16:34.462Z,2.55
2023-05-24T04:19:06.626Z,2.40
2023-05-24T04:21:36.873Z,2.30
2023-05-24T04:24:06.051Z,2.97
2023-05-24T04:26:37.785Z,2.88
2023-05-24T04:29:07.889Z,2.05
2023-05-24T04:31:36.880Z,2.20
2023-05-24T04:34:08.014Z,2.67
2023-05-24T04:36:37.140Z,2.75
2023-05-24T04:39:06.147Z,2.72
2023-05-24T04:41:37.404Z,2.67
2023-05-24T04:44:07.607Z,2.75
2023-05-24T04:46:37.479Z,2.42
2023-05-24T04:49:08.499Z,3.13
2023-05-24T04:51:41.666Z,2.30
2023-05-24T04:54:10.250Z,2.40
2023-05-24T04:56:40.319Z,2.50
2023-05-24T04:59:09.994Z,3.03
2023-05-24T05:01:38.422Z,2.42
2023-05-24T05:04:07.469Z,2.60
2023-05-24T05:06:38.883Z,2.45
2023-05-24T05:09:09.564Z,2.50
2023-05-24T05:11:40.058Z,2.55
2023-05-24T05:14:09.859Z,3.10
2023-05-24T05:16:39.094Z,3.20
2023-05-24T05:19:07.534Z,3.25
2023-05-24T05:21:36.928Z,2.92
2023-05-24T05:24:05.386Z,2.92
2023-05-24T05:26:33.707Z,3.15
2023-05-24T05:29:03.430Z,2.42
2023-05-24T05:31:32.150Z,3.25
2023-05-24T05:34:00.484Z,2.60
2023-05-24T05:36:28.784Z,3.42
2023-05-24T05:38:57.245Z,2.65
2023-05-24T05:41:25.712Z,2.97
2023-05-24T05:43:54.054Z,2.78
2023-05-24T05:46:23.819Z,2.78
2023-05-24T05:48:52.169Z,3.45
2023-05-24T05:51:20.513Z,2.50
2023-05-24T05:53:48.896Z,2.78
2023-05-24T05:56:17.831Z,2.92
2023-05-24T05:58:46.200Z,2.88
2023-05-24T06:01:14.464Z,2.50
2023-05-24T06:03:44.342Z,2.65
2023-05-24T06:06:12.909Z,2.10
2023-05-24T06:08:41.969Z,2.80
2023-05-24T06:11:10.270Z,2.88
2023-05-24T06:13:38.731Z,2.58
2023-05-24T06:16:08.664Z,2.97
2023-05-24T06:18:37.807Z,3.53
2023-05-24T06:21:10.644Z,2.58
2023-05-24T06:23:39.069Z,2.72
2023-05-24T06:26:08.999Z,2.20
2023-05-24T06:28:37.587Z,2.40
2023-05-24T06:31:06.218Z,2.80
2023-05-24T06:33:36.357Z,2.85
2023-05-24T06:36:07.859Z,2.80
2023-05-24T06:38:36.655Z,2.55
2023-05-24T06:41:05.132Z,2.45
2023-05-24T06:43:33.571Z,2.55
2023-05-24T06:46:01.863Z,2.08
2023-05-24T06:48:30.632Z,2.50
2023-05-24T06:50:59.012Z,3.00
2023-05-24T06:53:28.883Z,2.10
2023-05-24T06:55:57.800Z,2.25
2023-05-24T06:58:26.333Z,2.40
2023-05-24T07:00:54.757Z,2.10
2023-05-24T07:03:23.568Z,2.50
2023-05-24T07:05:51.814Z,2.40
2023-05-24T07:08:20.200Z,1.80
2023-05-24T07:10:50.004Z,1.73
2023-05-24T07:13:18.320Z,1.60
2023-05-24T07:15:47.563Z,2.28
2023-05-24T07:18:16.086Z,1.85
2023-05-24T07:20:44.660Z,1.85
2023-05-24T07:23:13.414Z,1.60
2023-05-24T07:25:41.712Z,2.15
2023-05-24T07:28:11.674Z,1.95
2023-05-24T07:30:40.059Z,1.75
2023-05-24T07:33:08.723Z,2.15
2023-05-24T07:35:37.165Z,1.92
2023-05-24T07:38:05.909Z,1.90
2023-05-24T07:40:34.272Z,1.98
2023-05-24T07:43:04.055Z,2.03
2023-05-24T07:45:34.244Z,1.75
2023-05-24T07:48:02.733Z,2.47
2023-05-24T07:50:31.223Z,1.98
2023-05-24T07:52:59.510Z,1.92
2023-05-24T07:55:28.558Z,2.05
2023-05-24T07:57:56.897Z,2.13
2023-05-24T08:00:25.519Z,1.92
2023-05-24T08:02:55.485Z,1.85
2023-05-24T08:05:24.081Z,1.63
2023-05-24T08:07:52.509Z,1.83
2023-05-24T08:10:21.985Z,2.05
2023-05-24T08:12:51.709Z,2.10
2023-05-24T08:15:20.037Z,2.42
2023-05-24T08:17:48.354Z,1.98
2023-05-24T08:20:18.359Z,1.60
2023-05-24T08:22:48.526Z,1.45
2023-05-24T08:25:17.239Z,1.52
2023-05-24T08:27:45.923Z,1.48
2023-05-24T08:30:15.359Z,2.10
2023-05-24T08:32:43.948Z,1.70
2023-05-24T08:35:20.839Z,1.45
2023-05-24T08:37:51.345Z,1.85
2023-05-24T08:40:20.017Z,1.63
2023-05-24T08:42:51.176Z,1.33
2023-05-24T08:45:20.475Z,1.70
2023-05-24T08:47:51.425Z,1.48
2023-05-24T08:50:20.755Z,2.00
2023-05-24T08:52:51.179Z,1.60
2023-05-24T08:55:20.156Z,1.90
2023-05-24T08:57:49.119Z,1.60
2023-05-24T09:00:19.526Z,1.98
2023-05-24T09:02:48.449Z,1.48
2023-05-24T09:05:18.050Z,1.88
2023-05-24T09:07:47.530Z,1.65
2023-05-24T09:10:18.558Z,1.70
2023-05-24T09:12:50.944Z,2.23
2023-05-24T09:15:19.353Z,2.13
2023-05-24T09:17:48.709Z,1.70
2023-05-24T09:20:17.300Z,1.70
2023-05-24T09:22:50.307Z,1.50
2023-05-24T09:25:21.707Z,1.65
2023-05-24T09:28:02.201Z,1.75
2023-05-24T10:31:53.884Z,2.00
2023-05-24T10:34:22.738Z,1.40
2023-05-24T10:36:51.553Z,1.85
2023-05-24T10:39:22.838Z,1.77
2023-05-24T10:41:51.354Z,2.15
2023-05-24T12:26:02.918Z,1.77
2023-05-24T12:45:16.769Z,1.67
2023-05-24T14:32:57.000Z,3.15
2023-05-24T14:36:11.841Z,1.88
2023-05-24T14:38:40.629Z,2.10
2023-05-24T14:41:30.309Z,1.60
2023-05-24T14:49:36.641Z,1.48
2023-05-24T15:00:28.699Z,1.73
2023-05-24T15:08:38.009Z,1.73
2023-05-24T15:30:58.459Z,1.90
2023-05-24T15:31:01.061Z,1.77
2023-05-24T15:34:25.409Z,2.22
2023-05-24T15:41:51.211Z,1.65
2023-05-24T15:44:12.959Z,1.90
2023-05-24T15:52:56.036Z,2.63
2023-05-24T15:59:57.373Z,2.25
2023-05-24T16:07:20.093Z,2.20
2023-05-24T16:12:03.050Z,2.20
2023-05-24T16:15:22.905Z,2.45
2023-05-24T16:22:21.325Z,2.50
2023-05-24T16:25:03.145Z,2.40
2023-05-24T16:32:38.001Z,2.08
2023-05-24T16:38:28.311Z,2.20
2023-05-24T16:39:04.822Z,2.63
2023-05-24T16:41:42.611Z,2.03
2023-05-24T16:44:17.701Z,1.98
2023-05-24T16:46:48.174Z,2.42
2023-05-24T16:49:17.896Z,2.13
2023-05-24T16:51:52.581Z,2.78
2023-05-24T16:54:22.972Z,3.05
2023-05-24T16:56:54.021Z,1.98
2023-05-24T16:59:24.882Z,2.97
2023-05-24T17:01:54.789Z,2.83
2023-05-24T17:04:29.376Z,2.60
2023-05-24T17:07:01.371Z,2.40
2023-05-24T17:09:33.343Z,2.08
2023-05-24T17:12:05.184Z,2.60
2023-05-24T17:15:38.312Z,2.75
2023-05-24T17:18:12.262Z,2.35
2023-05-24T17:21:15.806Z,2.17
2023-05-24T17:27:15.419Z,2.20
2023-05-24T17:29:52.986Z,2.42
2023-05-24T17:36:06.824Z,2.15
2023-05-24T17:38:59.150Z,2.00
2023-05-24T17:41:54.140Z,2.25
2023-05-24T17:47:04.921Z,2.30
2023-05-24T17:49:33.277Z,2.92
2023-05-24T17:52:07.309Z,2.20
2023-05-24T17:54:37.588Z,2.13
2023-05-24T17:57:21.483Z,2.80
2023-05-24T18:00:07.826Z,2.80
2023-05-24T18:02:36.340Z,2.20
2023-05-24T18:05:04.936Z,3.35
2023-05-24T18:07:34.718Z,2.60
2023-05-24T18:10:03.112Z,2.88
2023-05-24T18:12:31.885Z,2.55
2023-05-24T18:15:00.243Z,3.05
2023-05-24T18:17:28.698Z,3.10
2023-05-24T18:19:57.054Z,2.85
2023-05-24T18:22:25.471Z,2.65
2023-05-24T18:24:55.222Z,2.65
2023-05-24T18:27:26.734Z,2.55
2023-05-24T18:29:55.272Z,2.83
2023-05-24T18:32:23.638Z,2.30
2023-05-24T18:34:52.004Z,2.83
2023-05-24T18:37:23.126Z,2.72
2023-05-24T18:39:51.511Z,2.58
2023-05-24T18:42:21.154Z,2.72
2023-05-24T18:44:49.413Z,2.75
2023-05-24T18:47:17.777Z,2.58
2023-05-24T18:49:46.290Z,3.00
2023-05-24T18:52:14.823Z,2.55
2023-05-24T18:54:43.268Z,3.03
2023-05-24T18:57:11.608Z,3.05
2023-05-24T18:59:41.252Z,3.20
2023-05-24T19:02:09.640Z,3.25
2023-05-24T19:04:37.991Z,2.85
2023-05-24T19:07:07.041Z,3.17
2023-05-24T19:09:36.692Z,2.92
2023-05-24T19:12:05.686Z,2.90
2023-05-24T19:14:33.962Z,3.35
2023-05-24T19:17:06.594Z,3.10
2023-05-24T19:19:34.903Z,2.72
2023-05-24T19:22:04.781Z,3.92
2023-05-24T19:24:33.019Z,4.10
2023-05-24T19:27:01.812Z,3.63
2023-05-24T19:29:29.917Z,3.30
2023-05-24T19:31:58.215Z,3.08
2023-05-24T19:34:28.790Z,3.40
2023-05-24T19:36:57.937Z,4.28
2023-05-24T19:39:26.328Z,4.35
2023-05-24T19:41:54.679Z,4.03
2023-05-24T19:44:23.004Z,3.83
2023-05-24T19:46:51.385Z,4.20
2023-05-24T19:49:19.727Z,3.92
2023-05-24T19:51:49.523Z,3.83
2023-05-24T19:54:17.912Z,4.10
2023-05-24T19:56:50.226Z,3.58
2023-05-24T20:01:50.393Z,3.85
2023-05-24T20:04:20.837Z,4.32
2023-05-24T20:06:52.186Z,3.92
2023-05-24T20:09:20.512Z,3.60
2023-05-24T20:11:50.105Z,4.47
2023-05-24T20:14:19.285Z,4.35
2023-05-24T20:16:50.418Z,4.35
2023-05-24T20:19:18.862Z,4.22
2023-05-24T20:21:48.408Z,3.83
2023-05-24T20:24:28.623Z,4.32
2023-05-24T20:26:58.837Z,4.80
2023-05-24T20:29:28.512Z,4.38
2023-05-24T20:31:57.016Z,4.57
2023-05-24T20:34:27.285Z,4.82
2023-05-24T20:37:00.241Z,4.82
2023-05-24T20:39:32.631Z,4.45
2023-05-24T20:44:29.483Z,4.22
2023-05-24T20:46:57.897Z,5.00
2023-05-24T20:49:26.404Z,5.13
2023-05-24T20:51:56.777Z,5.45
2023-05-24T20:54:25.090Z,5.40
2023-05-24T20:56:54.904Z,5.20
2023-05-24T20:59:23.359Z,5.82
2023-05-24T21:01:51.713Z,5.03
2023-05-24T21:04:22.309Z,5.65
2023-05-24T21:06:56.511Z,4.95
2023-05-24T21:09:25.208Z,5.15
2023-05-24T21:11:55.297Z,6.18
2023-05-24T21:14:23.686Z,5.55
2023-05-24T21:16:52.165Z,5.97
2023-05-24T21:19:20.867Z,5.30
2023-05-24T21:21:52.372Z,6.05
2023-05-24T21:24:24.287Z,6.57
2023-05-24T21:26:52.728Z,6.72
2023-05-24T21:29:22.576Z,5.68
2023-05-24T21:31:50.907Z,6.63
2023-05-24T21:34:19.365Z,6.93
2023-05-24T21:36:50.363Z,6.95
2023-05-24T21:39:21.835Z,6.15
2023-05-24T21:41:50.284Z,6.13
2023-05-24T21:44:19.587Z,6.38
2023-05-24T21:46:49.540Z,6.07
2023-05-24T21:49:19.063Z,6.95
2023-05-24T21:51:47.342Z,6.50
2023-05-24T21:54:20.038Z,5.65
2023-05-24T21:56:50.775Z,6.30
2023-05-24T21:59:21.486Z,6.40
2023-05-24T22:01:52.488Z,7.85
2023-05-24T22:04:20.980Z,6.57
2023-05-24T22:06:49.276Z,7.18
2023-05-24T22:09:17.755Z,6.47
2023-05-24T22:11:46.158Z,6.80
2023-05-24T22:14:14.585Z,5.95
2023-05-24T22:16:43.046Z,5.43
2023-05-24T22:19:16.325Z,5.18
2023-05-24T22:21:46.016Z,5.38
2023-05-24T22:24:14.329Z,5.60
2023-05-24T22:26:47.182Z,4.80
2023-05-24T22:29:15.922Z,5.88
2023-05-24T22:31:44.284Z,5.78
2023-05-24T22:34:15.043Z,5.57
2023-05-24T22:36:43.391Z,5.15
2023-05-24T22:39:11.848Z,5.28
2023-05-24T22:41:40.206Z,5.00
2023-05-24T22:44:08.605Z,5.13
2023-05-24T22:46:37.206Z,4.75
2023-05-24T22:49:06.056Z,6.25
2023-05-24T22:51:37.828Z,5.03
2023-05-24T22:54:06.685Z,5.38
2023-05-24T22:56:36.188Z,5.20
2023-05-24T22:59:04.828Z,6.07
2023-05-24T23:01:33.904Z,4.85
2023-05-24T23:04:18.931Z,5.22
2023-05-24T23:06:49.368Z,5.60
2023-05-24T23:09:35.920Z,5.47
2023-05-24T23:12:08.508Z,5.47
2023-05-24T23:14:39.344Z,5.65
2023-05-24T23:17:10.476Z,4.88
2023-05-24T23:19:42.613Z,4.82
2023-05-24T23:22:13.244Z,5.43
2023-05-24T23:24:42.951Z,5.50
2023-05-24T23:27:15.616Z,6.28
2023-05-24T23:29:43.858Z,4.65
2023-05-24T23:32:14.464Z,5.53
2023-05-24T23:34:43.374Z,9.90
2023-05-24T23:37:13.655Z,6.22
2023-05-24T23:39:42.172Z,5.90
2023-05-24T23:42:10.502Z,5.22
2023-05-24T23:44:38.925Z,5.47
2023-05-24T23:47:09.996Z,6.03
2023-05-24T23:49:38.804Z,5.70
2023-05-24T23:52:08.144Z,5.50
2023-05-24T23:54:39.651Z,6.93
2023-05-24T23:57:09.799Z,6.17
2023-05-24T23:59:38.541Z,6.60
